Time;durP1;ratioP1;P1;durP2;ratioP2;P2;SDS_P1;SDS_P2;PMS_P1;PMS_P2;Temp;Humidity;BMP_temperature;BMP_pressure;BME280_temperature;BME280_humidity;BME280_pressure;Samples;Min_cycle;Max_cycle;Signal;HPM_P1;HPM_P2
2022/05/31 00:00:22;;;;;;;4.80;3.63;;;11.00;99.90;;;;;;4964320;28;20451;-66
2022/05/31 00:02:49;;;;;;;3.40;3.20;;;11.00;99.90;;;;;;4970015;28;20449;-66
2022/05/31 00:05:14;;;;;;;3.67;3.37;;;11.00;99.90;;;;;;4972661;28;20452;-66
2022/05/31 00:07:41;;;;;;;5.50;3.50;;;10.90;99.90;;;;;;4971974;28;20826;-66
2022/05/31 00:10:09;;;;;;;3.87;3.10;;;10.80;99.90;;;;;;4970504;28;20212;-66
2022/05/31 00:12:35;;;;;;;4.20;3.20;;;10.80;99.90;;;;;;4971385;28;20446;-66
2022/05/31 00:15:01;;;;;;;4.43;3.57;;;10.80;99.90;;;;;;4971984;28;20482;-66
2022/05/31 00:17:27;;;;;;;3.40;3.20;;;10.70;99.90;;;;;;4971948;28;20459;-66
2022/05/31 00:19:53;;;;;;;4.13;3.50;;;10.60;99.90;;;;;;4970208;28;20444;-65
2022/05/31 00:22:24;;;;;;;4.93;3.40;;;10.60;99.90;;;;;;4970883;28;20490;-66
2022/05/31 00:24:50;;;;;;;4.50;4.10;;;10.60;99.90;;;;;;4971605;28;20188;-66
2022/05/31 00:27:19;;;;;;;4.03;3.70;;;10.60;99.90;;;;;;4971341;28;20446;-65
2022/05/31 00:29:45;;;;;;;3.80;3.50;;;10.50;99.90;;;;;;4970532;28;20447;-66
2022/05/31 00:32:13;;;;;;;3.33;3.10;;;10.50;99.90;;;;;;4968859;28;20439;-66
2022/05/31 00:34:44;;;;;;;3.57;3.27;;;10.40;99.90;;;;;;4971633;28;20469;-66
2022/05/31 00:37:10;;;;;;;4.43;3.67;;;10.40;99.90;;;;;;4970347;28;20435;-66
2022/05/31 00:39:36;;;;;;;2.83;2.63;;;10.30;99.90;;;;;;4964699;28;20436;-66
2022/05/31 00:42:05;;;;;;;3.60;3.30;;;10.30;99.90;;;;;;4971138;28;20459;-66
2022/05/31 00:44:32;;;;;;;3.50;3.20;;;10.40;99.90;;;;;;4967098;28;20455;-66
2022/05/31 00:47:08;;;;;;;2.53;2.33;;;10.50;99.90;;;;;;4970006;28;20494;-66
2022/05/31 00:49:53;;;;;;;3.80;3.50;;;10.50;99.90;;;;;;4960060;28;20463;-66
2022/05/31 00:52:27;;;;;;;3.67;3.27;;;10.40;99.90;;;;;;4969924;28;20481;-66
2022/05/31 00:54:57;;;;;;;4.10;3.20;;;10.40;99.90;;;;;;4967985;28;20468;-66
2022/05/31 00:57:23;;;;;;;3.90;3.60;;;10.30;99.90;;;;;;4967590;28;20802;-66
2022/05/31 00:59:53;;;;;;;4.40;3.63;;;10.30;99.90;;;;;;4971195;28;20490;-66
2022/05/31 01:02:19;;;;;;;3.10;2.83;;;10.20;99.90;;;;;;4972473;28;20439;-66
2022/05/31 01:04:49;;;;;;;3.40;3.10;;;10.10;99.90;;;;;;4968986;28;20443;-66
2022/05/31 01:07:16;;;;;;;3.37;3.17;;;10.00;99.90;;;;;;4970074;28;20439;-66
2022/05/31 01:09:41;;;;;;;7.50;4.60;;;10.10;99.90;;;;;;4970920;28;20443;-66
2022/05/31 01:12:07;;;;;;;6.00;4.43;;;10.00;99.90;;;;;;4971473;28;20459;-66
2022/05/31 01:14:33;;;;;;;3.53;3.07;;;10.00;99.90;;;;;;4972053;28;20210;-66
2022/05/31 01:17:23;;;;;;;3.80;3.50;;;10.00;99.90;;;;;;4971439;28;20436;-66
2022/05/31 01:19:56;;;;;;;2.87;2.67;;;9.90;99.90;;;;;;4963053;28;20659;-66
2022/05/31 01:22:43;;;;;;;3.90;3.07;;;9.90;99.90;;;;;;4969643;28;20440;-66
2022/05/31 01:25:35;;;;;;;3.10;2.90;;;9.90;99.90;;;;;;4969910;28;20497;-66
2022/05/31 01:28:29;;;;;;;4.03;3.60;;;9.90;99.90;;;;;;4969306;28;20988;-66
2022/05/31 01:31:05;;;;;;;3.30;3.10;;;9.90;99.90;;;;;;4970154;28;20978;-66
2022/05/31 01:33:37;;;;;;;5.00;2.80;;;10.00;99.90;;;;;;4971548;28;20439;-66
2022/05/31 01:36:14;;;;;;;2.87;2.67;;;10.00;99.90;;;;;;4970886;28;20806;-66
2022/05/31 01:38:46;;;;;;;3.60;3.27;;;10.00;99.90;;;;;;4969912;28;20494;-66
2022/05/31 01:41:26;;;;;;;3.37;3.07;;;9.80;99.90;;;;;;4972428;28;20432;-66
2022/05/31 01:43:53;;;;;;;3.90;3.60;;;9.80;99.90;;;;;;4964651;28;20455;-66
2022/05/31 01:46:31;;;;;;;3.47;3.17;;;9.70;99.90;;;;;;4970253;28;21019;-66
2022/05/31 01:48:59;;;;;;;3.63;3.33;;;9.60;99.90;;;;;;4969990;28;20431;-66
2022/05/31 01:51:25;;;;;;;3.73;3.33;;;9.50;99.90;;;;;;4963007;28;20467;-65
2022/05/31 01:53:53;;;;;;;3.07;2.87;;;9.60;99.90;;;;;;4970862;28;20436;-66
2022/05/31 01:56:20;;;;;;;4.50;4.03;;;9.70;99.90;;;;;;4970676;28;20993;-66
2022/05/31 01:58:49;;;;;;;4.17;3.87;;;9.80;99.90;;;;;;4970387;28;20442;-66
2022/05/31 02:01:15;;;;;;;6.80;3.20;;;9.90;99.90;;;;;;4968454;28;20829;-66
2022/05/31 02:03:42;;;;;;;4.23;3.70;;;10.00;99.90;;;;;;4974802;28;20432;-66
2022/05/31 02:06:26;;;;;;;3.60;3.30;;;9.80;99.90;;;;;;4974135;28;20189;-66
2022/05/31 02:08:52;;;;;;;3.37;3.07;;;9.80;99.90;;;;;;4974428;28;20534;-66
2022/05/31 02:11:17;;;;;;;3.93;3.50;;;9.70;99.90;;;;;;4974121;28;20972;-66
2022/05/31 02:13:45;;;;;;;4.90;3.47;;;9.70;99.90;;;;;;4973301;28;20184;-65
2022/05/31 02:16:11;;;;;;;5.40;3.40;;;9.70;99.90;;;;;;4967917;28;20183;-65
2022/05/31 02:21:21;;;;;;;4.10;3.80;;;9.60;99.90;;;;;;4975396;28;20509;-66
2022/05/31 02:23:46;;;;;;;3.60;3.30;;;9.60;99.90;;;;;;4974349;28;20933;-66
2022/05/31 02:26:12;;;;;;;3.47;3.13;;;9.50;99.90;;;;;;4974199;28;20713;-66
2022/05/31 02:28:37;;;;;;;3.30;3.00;;;9.40;99.90;;;;;;4973186;28;20188;-66
2022/05/31 02:31:03;;;;;;;4.23;3.77;;;9.40;99.90;;;;;;4968702;28;20204;-66
2022/05/31 02:33:29;;;;;;;4.07;3.77;;;9.30;99.90;;;;;;4972546;28;20183;-66
2022/05/31 02:35:54;;;;;;;3.43;3.20;;;9.20;99.90;;;;;;4973400;28;20223;-66
2022/05/31 02:38:20;;;;;;;3.93;3.60;;;9.30;99.90;;;;;;4972807;28;20183;-65
2022/05/31 02:40:45;;;;;;;3.73;3.43;;;9.30;99.90;;;;;;4974600;28;20196;-66
2022/05/31 02:43:11;;;;;;;3.97;3.67;;;9.30;99.90;;;;;;4972963;28;20550;-66
2022/05/31 02:45:36;;;;;;;3.73;3.43;;;9.40;99.90;;;;;;4973723;28;20689;-66
2022/05/31 02:48:02;;;;;;;4.20;3.80;;;9.40;99.90;;;;;;4964563;28;20197;-66
2022/05/31 02:50:28;;;;;;;3.90;3.60;;;9.40;99.90;;;;;;4972375;28;20215;-65
2022/05/31 02:52:53;;;;;;;4.37;3.40;;;9.30;99.90;;;;;;4974472;28;20215;-65
2022/05/31 02:55:19;;;;;;;4.67;3.67;;;9.20;99.90;;;;;;4972190;28;20212;-65
2022/05/31 02:57:44;;;;;;;3.97;3.67;;;9.10;99.90;;;;;;4973578;28;20247;-65
2022/05/31 03:00:11;;;;;;;3.07;2.87;;;9.10;99.90;;;;;;4971294;28;20263;-65
2022/05/31 03:02:37;;;;;;;4.10;3.80;;;9.00;99.90;;;;;;4973218;28;20189;-65
2022/05/31 03:05:03;;;;;;;4.83;3.00;;;9.00;99.90;;;;;;4971014;28;20811;-65
2022/05/31 03:07:29;;;;;;;4.20;3.80;;;9.00;99.90;;;;;;4974475;28;20794;-65
2022/05/31 03:09:55;;;;;;;4.37;3.77;;;9.10;99.90;;;;;;4972751;28;20466;-65
2022/05/31 03:12:22;;;;;;;4.10;3.80;;;9.10;99.90;;;;;;4972630;28;20216;-65
2022/05/31 03:15:09;;;;;;;4.50;3.40;;;9.20;99.90;;;;;;4972065;28;20243;-66
2022/05/31 03:17:38;;;;;;;5.57;4.00;;;9.20;99.90;;;;;;4967771;28;20517;-66
2022/05/31 03:20:14;;;;;;;4.50;3.90;;;9.20;99.90;;;;;;4971219;28;20812;-65
2022/05/31 03:22:51;;;;;;;3.23;3.03;;;9.10;99.90;;;;;;4973590;28;20459;-65
2022/05/31 03:25:21;;;;;;;3.83;3.47;;;8.90;99.90;;;;;;4973821;28;20512;-65
2022/05/31 03:27:47;;;;;;;4.50;3.70;;;8.80;99.90;;;;;;4973058;28;20450;-65
2022/05/31 03:30:14;;;;;;;5.10;3.43;;;8.80;99.90;;;;;;4969071;28;20549;-65
2022/05/31 03:32:41;;;;;;;4.80;3.73;;;8.80;99.90;;;;;;4972459;28;20474;-65
2022/05/31 03:35:08;;;;;;;5.20;3.40;;;8.90;99.90;;;;;;4970850;28;20960;-66
2022/05/31 03:37:33;;;;;;;3.60;3.30;;;8.90;99.90;;;;;;4971940;28;20494;-66
2022/05/31 03:39:59;;;;;;;5.80;3.80;;;9.00;99.90;;;;;;4972353;28;20439;-65
2022/05/31 03:42:24;;;;;;;4.33;3.47;;;9.00;99.90;;;;;;4973268;28;20542;-65
2022/05/31 03:44:54;;;;;;;4.20;3.80;;;9.00;99.90;;;;;;4971627;28;20192;-65
2022/05/31 03:47:20;;;;;;;7.00;4.20;;;9.10;99.90;;;;;;4971988;28;20180;-65
2022/05/31 03:49:45;;;;;;;6.20;3.80;;;9.00;99.90;;;;;;4970371;28;20474;-66
2022/05/31 03:52:11;;;;;;;5.23;3.30;;;9.00;99.90;;;;;;4967118;28;20185;-65
2022/05/31 03:54:37;;;;;;;5.30;4.33;;;9.00;99.90;;;;;;4972124;28;20204;-65
2022/05/31 03:57:07;;;;;;;4.70;3.63;;;9.00;99.90;;;;;;4970787;28;20180;-65
2022/05/31 03:59:37;;;;;;;5.13;4.20;;;9.10;99.90;;;;;;4972928;28;20444;-66
2022/05/31 04:02:04;;;;;;;11.53;5.13;;;9.10;99.90;;;;;;4971792;28;20447;-66
2022/05/31 04:04:29;;;;;;;4.73;3.90;;;9.30;99.90;;;;;;4969014;28;20983;-66
2022/05/31 04:06:55;;;;;;;6.77;4.00;;;9.40;99.90;;;;;;4972981;28;20440;-66
2022/05/31 04:09:20;;;;;;;4.23;3.67;;;9.50;99.90;;;;;;4970057;28;20654;-65
2022/05/31 04:11:46;;;;;;;4.37;4.07;;;9.50;99.90;;;;;;4973030;28;20204;-66
2022/05/31 04:14:11;;;;;;;3.77;3.43;;;9.50;99.90;;;;;;4972644;28;20210;-66
2022/05/31 04:16:37;;;;;;;4.33;3.70;;;9.50;99.90;;;;;;4971481;28;20180;-66
2022/05/31 04:19:03;;;;;;;5.60;4.00;;;9.50;99.90;;;;;;4971678;28;20196;-65
2022/05/31 04:21:29;;;;;;;7.70;4.27;;;9.30;99.90;;;;;;4972480;28;20200;-66
2022/05/31 04:24:08;;;;;;;4.40;3.60;;;9.20;99.90;;;;;;4971993;28;20515;-66
2022/05/31 04:26:44;;;;;;;7.27;4.20;;;9.00;99.90;;;;;;4970027;28;20168;-66
2022/05/31 04:29:10;;;;;;;4.47;3.80;;;9.00;99.90;;;;;;4968824;28;20942;-66
2022/05/31 04:31:35;;;;;;;4.60;4.20;;;9.20;99.90;;;;;;4970593;28;20455;-65
2022/05/31 04:34:03;;;;;;;5.03;4.53;;;9.40;99.90;;;;;;4970963;28;20250;-65
2022/05/31 04:36:29;;;;;;;8.07;5.67;;;9.70;99.90;;;;;;4971285;28;20225;-66
2022/05/31 04:38:54;;;;;;;4.90;4.00;;;10.00;99.90;;;;;;4972141;28;20471;-66
2022/05/31 04:41:24;;;;;;;5.87;4.97;;;10.20;99.90;;;;;;4972472;28;20697;-66
2022/05/31 04:43:52;;;;;;;5.87;4.80;;;10.40;99.90;;;;;;4971047;28;20184;-66
2022/05/31 04:46:21;;;;;;;7.33;4.80;;;10.40;99.90;;;;;;4965958;28;20505;-66
2022/05/31 04:48:46;;;;;;;6.70;4.60;;;10.40;99.90;;;;;;4971520;28;20482;-66
2022/05/31 04:51:13;;;;;;;7.73;5.07;;;10.50;99.90;;;;;;4967389;28;20459;-66
2022/05/31 04:53:40;;;;;;;6.90;4.27;;;10.60;99.90;;;;;;4966870;28;20198;-66
2022/05/31 04:56:08;;;;;;;5.67;4.87;;;10.80;99.90;;;;;;4971608;28;20550;-66
2022/05/31 04:58:34;;;;;;;7.40;4.13;;;11.00;99.90;;;;;;4971150;28;20466;-66
2022/05/31 05:01:01;;;;;;;5.97;4.33;;;11.30;99.90;;;;;;4969482;28;20468;-66
2022/05/31 05:03:29;;;;;;;5.47;4.97;;;11.50;99.90;;;;;;4969909;28;20212;-66
2022/05/31 05:05:59;;;;;;;5.73;4.00;;;11.70;99.90;;;;;;4971538;28;20450;-66
2022/05/31 05:08:24;;;;;;;5.00;4.27;;;11.80;99.90;;;;;;4970585;28;20459;-66
2022/05/31 05:10:50;;;;;;;7.77;4.63;;;12.00;99.90;;;;;;4968689;28;20467;-66
2022/05/31 05:13:15;;;;;;;5.03;4.40;;;12.20;99.90;;;;;;4971836;28;20313;-66
2022/05/31 05:15:42;;;;;;;5.20;4.70;;;12.30;99.90;;;;;;4971512;28;20665;-66
2022/05/31 05:18:08;;;;;;;8.73;4.17;;;12.50;99.90;;;;;;4970650;28;20207;-66
2022/05/31 05:20:36;;;;;;;5.37;3.93;;;12.70;99.90;;;;;;4970994;28;20455;-66
2022/05/31 05:23:03;;;;;;;4.53;3.80;;;12.90;99.90;;;;;;4970061;28;20446;-66
2022/05/31 05:25:29;;;;;;;6.57;4.13;;;13.00;99.90;;;;;;4966001;28;20475;-66
2022/05/31 05:27:54;;;;;;;7.03;4.73;;;13.30;99.90;;;;;;4970903;28;20521;-67
2022/05/31 05:33:04;;;;;;;6.80;4.50;;;13.60;99.90;;;;;;4972750;28;20231;-67
2022/05/31 05:35:30;;;;;;;6.10;4.40;;;13.80;99.90;;;;;;4971398;28;20463;-66
2022/05/31 05:37:55;;;;;;;5.97;5.47;;;14.00;99.90;;;;;;4973839;28;20446;-64
2022/05/31 05:40:21;;;;;;;5.30;4.53;;;14.20;99.90;;;;;;4968734;28;20635;-66
2022/05/31 05:42:46;;;;;;;5.33;4.83;;;14.20;99.90;;;;;;4971840;28;20172;-66
2022/05/31 05:45:12;;;;;;;4.60;4.20;;;13.90;99.90;;;;;;4970170;28;20195;-66
2022/05/31 05:47:38;;;;;;;6.63;4.73;;;13.80;99.90;;;;;;4972355;28;20271;-66
2022/05/31 05:50:05;;;;;;;4.60;4.20;;;13.80;99.90;;;;;;4975843;28;20191;-66
2022/05/31 05:52:31;;;;;;;6.10;3.90;;;13.60;99.90;;;;;;4976379;28;20419;-66
2022/05/31 05:54:57;;;;;;;17.53;13.77;;;13.60;99.90;;;;;;4976304;28;20478;-66
2022/05/31 05:57:22;;;;;;;5.20;4.47;;;13.50;99.90;;;;;;4976402;28;20925;-66
2022/05/31 05:59:47;;;;;;;9.03;4.80;;;13.50;99.90;;;;;;4975809;28;20222;-66
2022/05/31 06:02:29;;;;;;;5.20;4.80;;;13.60;99.90;;;;;;4976556;28;20214;-66
2022/05/31 06:05:12;;;;;;;8.63;4.80;;;13.50;99.90;;;;;;4976338;28;20180;-66
2022/05/31 06:07:46;;;;;;;4.70;4.20;;;13.80;99.90;;;;;;4976240;28;20415;-67
2022/05/31 06:10:17;;;;;;;5.23;4.77;;;14.00;99.90;;;;;;4975698;28;20458;-66
2022/05/31 06:12:46;;;;;;;5.60;4.40;;;14.30;99.90;;;;;;4976226;28;20419;-66
2022/05/31 06:15:17;;;;;;;6.30;4.87;;;14.40;99.90;;;;;;4976136;28;20834;-66
2022/05/31 06:17:45;;;;;;;8.53;4.43;;;14.40;99.90;;;;;;4976107;28;20474;-66
2022/05/31 06:20:11;;;;;;;5.47;4.60;;;14.20;99.90;;;;;;4975625;28;20583;-66
2022/05/31 06:22:40;;;;;;;8.23;5.60;;;14.10;99.90;;;;;;4975716;28;20817;-66
2022/05/31 06:25:07;;;;;;;5.80;5.30;;;14.10;99.90;;;;;;4975756;28;20424;-66
2022/05/31 06:27:32;;;;;;;6.60;5.53;;;14.10;99.90;;;;;;4975778;28;20423;-66
2022/05/31 06:29:58;;;;;;;6.90;5.40;;;14.10;99.90;;;;;;4975371;28;20423;-66
2022/05/31 06:32:23;;;;;;;8.37;5.40;;;14.30;99.90;;;;;;4975832;28;20183;-66
2022/05/31 06:34:49;;;;;;;7.60;5.80;;;14.50;99.90;;;;;;4975724;28;20593;-66
2022/05/31 06:37:17;;;;;;;8.40;4.90;;;14.70;99.90;;;;;;4975700;28;20251;-66
2022/05/31 06:39:44;;;;;;;8.07;4.70;;;14.80;99.90;;;;;;4975400;28;20177;-66
2022/05/31 06:42:10;;;;;;;7.40;4.97;;;15.10;99.90;;;;;;4975908;28;20801;-66
2022/05/31 06:44:38;;;;;;;4.97;4.40;;;15.30;99.90;;;;;;4975614;28;20427;-66
2022/05/31 06:47:05;;;;;;;8.03;5.17;;;15.70;99.90;;;;;;4975454;28;20419;-66
2022/05/31 06:49:32;;;;;;;6.87;5.00;;;16.00;99.90;;;;;;4974009;28;20420;-66
2022/05/31 06:57:33;;;;;;;6.80;4.37;;;16.30;99.90;;;;;;4964490;28;20435;-66
2022/05/31 06:59:58;;;;;;;4.13;3.80;;;16.00;99.90;;;;;;4948209;28;20435;-66
2022/05/31 07:02:26;;;;;;;3.57;3.37;;;15.70;99.90;;;;;;4962335;28;20768;-66
2022/05/31 07:04:51;;;;;;;6.33;3.77;;;15.60;99.90;;;;;;4972155;28;20251;-66
2022/05/31 07:07:17;;;;;;;3.00;2.70;;;15.60;99.90;;;;;;4962833;28;20520;-66
2022/05/31 07:09:42;;;;;;;3.80;3.50;;;15.70;99.90;;;;;;4972980;28;20188;-66
2022/05/31 07:12:09;;;;;;;3.30;3.00;;;15.90;99.90;;;;;;4974107;28;20212;-66
2022/05/31 07:14:34;;;;;;;3.50;3.20;;;16.10;99.90;;;;;;4973612;28;20215;-66
2022/05/31 07:16:59;;;;;;;3.30;2.50;;;16.40;99.90;;;;;;4980113;28;20422;-66
2022/05/31 07:19:25;;;;;;;3.30;3.00;;;16.50;99.90;;;;;;4972410;28;20180;-66
2022/05/31 07:21:50;;;;;;;3.43;3.13;;;16.70;99.90;;;;;;4974764;28;20288;-67
2022/05/31 07:24:16;;;;;;;4.20;3.80;;;17.00;99.90;;;;;;4974942;28;20707;-67
2022/05/31 07:26:42;;;;;;;3.30;2.77;;;17.40;99.90;;;;;;4974854;28;20642;-66
2022/05/31 07:29:09;;;;;;;5.83;2.83;;;17.50;99.20;;;;;;4973377;28;20207;-67
2022/05/31 07:31:36;;;;;;;3.53;3.27;;;17.90;99.30;;;;;;4970166;28;20669;-67
2022/05/31 07:34:01;;;;;;;3.10;2.80;;;17.80;98.90;;;;;;4970609;28;20956;-67
2022/05/31 07:36:27;;;;;;;4.77;3.17;;;17.60;98.40;;;;;;4967296;28;20438;-67
2022/05/31 07:38:53;;;;;;;3.00;2.80;;;17.40;98.60;;;;;;4967577;28;20646;-67
2022/05/31 07:41:19;;;;;;;3.30;3.00;;;17.50;98.50;;;;;;4969505;28;20262;-67
2022/05/31 07:43:44;;;;;;;2.43;2.23;;;17.50;98.70;;;;;;4969973;28;20459;-67
2022/05/31 07:46:13;;;;;;;2.80;2.60;;;17.70;97.90;;;;;;4971011;28;20180;-67
2022/05/31 07:48:39;;;;;;;5.20;4.13;;;17.60;98.00;;;;;;4967641;28;20184;-67
2022/05/31 07:51:06;;;;;;;3.30;3.00;;;17.70;98.20;;;;;;4971099;28;20531;-66
2022/05/31 07:53:33;;;;;;;3.20;3.00;;;17.60;98.30;;;;;;4971305;28;20898;-66
2022/05/31 07:56:00;;;;;;;3.20;3.00;;;17.80;98.60;;;;;;4969537;28;20846;-66
2022/05/31 07:58:33;;;;;;;3.13;2.93;;;17.90;98.00;;;;;;4967584;28;21034;-66
2022/05/31 08:01:06;;;;;;;2.67;2.47;;;18.10;98.20;;;;;;4970492;28;20447;-67
2022/05/31 08:03:33;;;;;;;3.33;3.00;;;18.40;98.00;;;;;;4971081;28;20856;-67
2022/05/31 08:06:08;;;;;;;4.13;3.30;;;18.80;97.30;;;;;;4971371;28;20545;-66
2022/05/31 08:08:34;;;;;;;3.20;2.63;;;18.80;97.10;;;;;;4967016;28;20427;-67
2022/05/31 08:11:11;;;;;;;3.73;3.43;;;18.90;96.50;;;;;;4970642;28;20490;-67
2022/05/31 08:13:37;;;;;;;3.87;3.50;;;18.90;97.00;;;;;;4970695;28;20435;-67
2022/05/31 08:16:04;;;;;;;4.60;3.30;;;19.10;96.50;;;;;;4970838;28;20463;-67
2022/05/31 08:18:30;;;;;;;3.27;3.00;;;19.30;95.70;;;;;;4967096;28;20514;-67
2022/05/31 08:21:01;;;;;;;2.77;2.20;;;19.30;94.40;;;;;;4970509;28;20530;-67
2022/05/31 08:23:27;;;;;;;4.67;2.90;;;19.30;94.40;;;;;;4970501;28;20416;-67
2022/05/31 08:25:54;;;;;;;3.17;2.90;;;19.60;94.80;;;;;;4970602;28;20438;-67
2022/05/31 08:28:20;;;;;;;3.40;3.10;;;19.60;94.40;;;;;;4966935;28;20439;-67
2022/05/31 08:30:47;;;;;;;2.60;2.30;;;19.60;94.10;;;;;;4970546;28;20474;-66
2022/05/31 08:33:13;;;;;;;4.03;2.57;;;19.20;94.00;;;;;;4970333;28;20434;-67
2022/05/31 08:35:38;;;;;;;2.97;2.67;;;19.30;94.90;;;;;;4970196;28;20467;-67
2022/05/31 08:38:04;;;;;;;4.07;3.77;;;19.40;94.80;;;;;;4966408;28;20188;-67
2022/05/31 08:40:36;;;;;;;4.10;3.23;;;19.60;94.70;;;;;;4969960;28;20196;-67
2022/05/31 08:43:06;;;;;;;7.17;2.60;;;19.70;94.10;;;;;;4970416;28;20172;-67
2022/05/31 08:45:51;;;;;;;3.00;2.70;;;19.90;94.20;;;;;;4970418;28;20428;-67
2022/05/31 08:48:33;;;;;;;2.97;2.77;;;20.20;94.10;;;;;;4966817;28;20435;-67
2022/05/31 08:56:59;;;;;;;2.63;2.43;;;21.50;91.40;;;;;;4969909;28;20426;-67
2022/05/31 08:59:41;;;;;;;4.20;2.87;;;22.00;89.90;;;;;;4966278;28;20478;-67
2022/05/31 09:02:19;;;;;;;2.80;2.60;;;22.00;88.80;;;;;;4970103;28;20446;-67
2022/05/31 09:04:53;;;;;;;5.33;2.70;;;21.90;88.70;;;;;;4968474;28;20439;-67
2022/05/31 09:07:45;;;;;;;3.80;3.50;;;21.90;87.50;;;;;;4968643;28;20474;-67
2022/05/31 09:10:22;;;;;;;2.83;2.63;;;21.70;87.90;;;;;;4950319;28;20467;-67
2022/05/31 09:13:02;;;;;;;2.83;2.67;;;21.80;86.80;;;;;;4958432;28;20482;-67
2022/05/31 09:15:40;;;;;;;2.80;2.60;;;21.90;85.10;;;;;;4969811;28;20458;-67
2022/05/31 09:18:20;;;;;;;4.43;2.47;;;22.60;83.00;;;;;;4965984;28;20423;-67
2022/05/31 09:20:58;;;;;;;2.43;2.23;;;22.60;81.80;;;;;;4978420;28;20440;-67
2022/05/31 09:23:28;;;;;;;2.47;2.27;;;22.80;79.00;;;;;;4989651;28;20916;-67
2022/05/31 09:26:11;;;;;;;2.43;2.23;;;23.00;79.30;;;;;;4989314;28;20727;-67
2022/05/31 09:28:47;;;;;;;2.67;2.33;;;23.10;77.80;;;;;;4969182;28;20466;-67
2022/05/31 09:31:38;;;;;;;3.10;2.67;;;23.60;76.50;;;;;;4969911;28;20869;-67
2022/05/31 09:34:31;;;;;;;2.57;2.37;;;23.60;75.10;;;;;;4969991;28;20560;-66
2022/05/31 09:37:15;;;;;;;2.73;2.20;;;24.00;72.90;;;;;;4969904;28;20434;-67
2022/05/31 09:40:16;;;;;;;2.83;2.10;;;24.30;72.10;;;;;;4966477;28;20435;-67
2022/05/31 09:43:11;;;;;;;2.60;2.40;;;24.80;69.70;;;;;;4970001;28;20474;-67
2022/05/31 09:45:45;;;;;;;2.30;2.17;;;25.70;66.90;;;;;;4969861;28;20423;-67
2022/05/31 09:48:11;;;;;;;5.20;2.80;;;25.80;64.20;;;;;;4963851;28;20427;-67
2022/05/31 09:50:37;;;;;;;3.03;2.37;;;25.00;63.00;;;;;;4961215;28;21008;-67
2022/05/31 09:57:05;;;;;;;2.57;2.37;;;25.10;65.30;;;;;;4961193;28;20231;-67
2022/05/31 09:58:40;;;;;;;2.60;2.33;;;25.20;59.10;;;;;;4957511;28;20935;-67
2022/05/31 10:01:27;;;;;;;7.73;3.10;;;26.20;58.80;;;;;;4969367;28;20502;-65
2022/05/31 10:03:59;;;;;;;5.00;4.50;;;26.00;57.20;;;;;;4969384;28;20415;-65
2022/05/31 10:06:27;;;;;;;2.13;1.77;;;27.00;56.80;;;;;;4969561;28;20516;-65
2022/05/31 10:08:54;;;;;;;4.00;2.03;;;28.00;53.80;;;;;;4965658;28;20466;-65
2022/05/31 10:11:32;;;;;;;2.63;2.37;;;27.30;53.30;;;;;;4969317;28;20478;-65
2022/05/31 10:14:05;;;;;;;5.13;2.30;;;26.40;53.30;;;;;;4969048;28;20439;-65
2022/05/31 10:16:35;;;;;;;3.23;2.47;;;25.60;54.50;;;;;;4969408;28;20922;-65
2022/05/31 10:19:08;;;;;;;3.70;3.40;;;25.30;55.60;;;;;;4965428;28;20438;-65
2022/05/31 10:21:36;;;;;;;2.80;2.40;;;25.20;55.00;;;;;;4969925;28;20502;-65
2022/05/31 10:24:22;;;;;;;2.40;2.20;;;24.80;55.80;;;;;;4971181;28;20427;-65
2022/05/31 10:27:12;;;;;;;2.53;2.33;;;24.60;56.00;;;;;;4972467;28;20943;-65
2022/05/31 10:29:59;;;;;;;5.57;2.30;;;24.60;55.50;;;;;;4941965;28;20444;-65
2022/05/31 10:32:41;;;;;;;3.43;2.80;;;25.10;54.20;;;;;;4953478;28;20505;-65
2022/05/31 10:35:26;;;;;;;2.40;2.20;;;26.60;52.40;;;;;;4953083;28;21268;-65
2022/05/31 10:38:10;;;;;;;3.50;2.33;;;28.20;50.50;;;;;;4965830;28;20451;-67
2022/05/31 10:40:43;;;;;;;3.03;2.77;;;29.80;50.20;;;;;;4972291;28;20625;-65
2022/05/31 10:43:34;;;;;;;3.90;2.67;;;30.30;52.80;;;;;;4972341;28;20486;-65
2022/05/31 10:46:14;;;;;;;5.33;3.20;;;31.20;51.70;;;;;;4944130;28;20440;-65
2022/05/31 10:48:47;;;;;;;5.00;3.30;;;31.20;50.70;;;;;;4968418;28;20434;-65
2022/05/31 10:51:28;;;;;;;5.90;2.90;;;31.30;50.10;;;;;;4972258;28;20446;-65
2022/05/31 10:54:03;;;;;;;4.40;3.20;;;31.70;49.10;;;;;;4971777;28;20428;-66
2022/05/31 10:56:33;;;;;;;3.97;2.47;;;31.90;48.40;;;;;;4974676;28;20419;-65
2022/05/31 10:59:03;;;;;;;3.20;2.87;;;32.20;47.60;;;;;;4970211;28;20412;-66
2022/05/31 11:01:56;;;;;;;4.57;2.60;;;32.70;47.00;;;;;;4974971;28;20440;-65
2022/05/31 11:04:41;;;;;;;4.83;2.80;;;32.40;47.20;;;;;;4975441;28;20427;-65
2022/05/31 11:07:27;;;;;;;4.80;2.93;;;32.80;45.20;;;;;;4975286;28;20412;-65
2022/05/31 11:13:38;;;;;;;3.87;3.53;;;33.90;44.30;;;;;;4984769;28;20497;-66
2022/05/31 11:16:13;;;;;;;3.77;3.47;;;33.60;43.80;;;;;;4994347;28;20548;-65
2022/05/31 11:18:56;;;;;;;3.70;3.40;;;34.70;41.80;;;;;;4977116;28;20423;-65
2022/05/31 11:21:52;;;;;;;5.03;3.57;;;35.20;41.40;;;;;;4974846;28;20449;-65
2022/05/31 11:24:39;;;;;;;4.20;3.90;;;34.40;40.80;;;;;;4975049;28;20498;-65
2022/05/31 11:27:07;;;;;;;7.83;6.93;;;33.80;40.60;;;;;;4974760;28;20416;-65
2022/05/31 11:29:37;;;;;;;3.90;3.50;;;35.00;40.00;;;;;;4967850;28;20428;-65
2022/05/31 11:32:38;;;;;;;8.57;3.60;;;35.00;39.80;;;;;;4974715;28;20470;-65
2022/05/31 11:35:22;;;;;;;4.93;3.40;;;35.30;38.70;;;;;;4974012;28;20465;-66
2022/05/31 11:38:20;;;;;;;7.43;2.80;;;35.70;37.80;;;;;;4968646;28;20546;-65
2022/05/31 11:40:58;;;;;;;3.63;3.00;;;35.20;38.10;;;;;;4974477;28;20444;-66
2022/05/31 11:43:41;;;;;;;9.93;5.40;;;33.80;38.80;;;;;;4955120;28;20545;-66
2022/05/31 11:46:24;;;;;;;6.67;2.77;;;33.60;39.20;;;;;;4954870;28;20416;-65
2022/05/31 11:49:16;;;;;;;4.70;3.43;;;32.20;39.80;;;;;;4959985;28;20423;-65
2022/05/31 11:52:00;;;;;;;4.27;3.20;;;31.20;41.60;;;;;;4964761;28;20477;-65
2022/05/31 11:54:41;;;;;;;3.93;3.23;;;32.00;40.80;;;;;;4954396;29;20828;-65
2022/05/31 11:57:15;;;;;;;5.83;3.10;;;33.00;38.40;;;;;;4954890;28;20782;-66
2022/05/31 12:00:05;;;;;;;3.00;2.70;;;32.60;39.10;;;;;;4965046;28;20922;-66
2022/05/31 12:02:45;;;;;;;5.17;3.30;;;32.70;38.90;;;;;;4954556;28;20471;-66
2022/05/31 12:05:24;;;;;;;2.83;2.50;;;33.00;38.20;;;;;;4954819;28;20456;-66
2022/05/31 12:07:57;;;;;;;2.57;2.33;;;33.40;38.40;;;;;;4953927;28;20434;-66
2022/05/31 12:10:31;;;;;;;5.80;2.37;;;32.40;38.30;;;;;;4972936;28;20467;-66
2022/05/31 12:13:07;;;;;;;4.07;3.17;;;31.70;38.50;;;;;;4973806;28;20424;-66
2022/05/31 12:15:39;;;;;;;2.70;2.47;;;30.50;38.90;;;;;;4973607;28;20834;-68
2022/05/31 12:18:18;;;;;;;2.83;2.50;;;29.60;40.20;;;;;;4967444;28;20469;-68
2022/05/31 12:21:03;;;;;;;6.00;2.97;;;28.70;41.20;;;;;;4973055;28;20435;-66
2022/05/31 12:23:47;;;;;;;2.93;2.73;;;28.20;41.60;;;;;;4973968;28;20427;-66
2022/05/31 12:26:27;;;;;;;4.93;2.60;;;27.50;42.20;;;;;;4973573;28;20430;-65
2022/05/31 12:29:24;;;;;;;2.93;2.40;;;27.00;42.30;;;;;;4966547;28;20513;-67
2022/05/31 12:31:50;;;;;;;2.87;2.67;;;27.40;42.50;;;;;;4966517;28;20538;-68
2022/05/31 12:34:19;;;;;;;2.47;2.27;;;27.80;42.60;;;;;;4973307;28;20845;-65
2022/05/31 12:36:58;;;;;;;3.47;2.47;;;28.20;42.90;;;;;;4973397;28;20946;-65
2022/05/31 12:39:30;;;;;;;2.87;2.30;;;27.80;41.40;;;;;;4966220;28;20412;-67
2022/05/31 12:41:56;;;;;;;2.30;2.20;;;27.60;41.40;;;;;;4973221;28;20439;-67
2022/05/31 12:44:34;;;;;;;8.07;2.70;;;27.40;42.10;;;;;;4973373;28;20428;-67
2022/05/31 12:47:26;;;;;;;4.00;3.70;;;27.10;42.00;;;;;;4959101;28;20771;-67
2022/05/31 12:50:04;;;;;;;2.60;2.40;;;27.00;42.00;;;;;;4968662;28;20427;-67
2022/05/31 12:55:31;;;;;;;2.97;2.77;;;29.30;41.30;;;;;;4973320;28;20829;-67
2022/05/31 13:00:53;;;;;;;2.50;2.30;;;32.00;37.50;;;;;;4972344;28;20487;-67
2022/05/31 13:03:32;;;;;;;2.90;2.70;;;30.90;37.50;;;;;;4973081;28;20792;-67
2022/05/31 13:06:02;;;;;;;2.57;2.37;;;29.80;38.50;;;;;;4973070;28;20423;-67
2022/05/31 13:08:54;;;;;;;2.90;2.20;;;30.50;39.10;;;;;;4966555;28;20820;-67
2022/05/31 13:20:09;;;;;;;2.33;2.13;;;33.50;35.60;;;;;;4970752;28;20497;-67
2022/05/31 13:22:38;;;;;;;2.83;2.50;;;33.40;35.60;;;;;;4973069;28;20420;-67
2022/05/31 13:25:16;;;;;;;3.50;2.10;;;32.90;35.90;;;;;;4973301;28;20816;-67
2022/05/31 13:27:41;;;;;;;3.77;2.30;;;31.60;36.00;;;;;;4968247;28;20446;-67
2022/05/31 13:30:13;;;;;;;5.23;2.30;;;30.80;37.20;;;;;;4970518;28;20447;-67
2022/05/31 13:32:40;;;;;;;3.03;2.27;;;30.00;37.40;;;;;;4972902;28;20622;-68
2022/05/31 13:35:19;;;;;;;3.37;2.00;;;29.10;38.00;;;;;;4972904;28;20987;-68
2022/05/31 13:38:04;;;;;;;3.60;2.60;;;28.20;39.30;;;;;;4967456;28;20439;-67
2022/05/31 13:40:49;;;;;;;6.20;2.10;;;27.70;40.20;;;;;;4966874;28;20450;-66
2022/05/31 13:43:51;;;;;;;3.97;2.63;;;27.40;40.30;;;;;;4970626;28;20451;-68
2022/05/31 13:46:31;;;;;;;4.83;1.90;;;27.00;40.50;;;;;;4958676;28;20875;-67
2022/05/31 13:49:02;;;;;;;2.97;2.60;;;27.10;40.90;;;;;;4962934;28;20489;-67